sensor_id;sensor_type;location;lat;lon;timestamp;temperature;humidity
46720;DHT22;32452;51.382;-0.002;2022-09-09T00:02:27;16.00;99.90
46720;DHT22;32452;51.382;-0.002;2022-09-09T00:05:27;16.00;99.90
46720;DHT22;32452;51.382;-0.002;2022-09-09T00:08:19;16.00;99.90
46720;DHT22;32452;51.382;-0.002;2022-09-09T00:11:05;16.00;99.90
46720;DHT22;32452;51.382;-0.002;2022-09-09T00:13:53;16.00;99.90
46720;DHT22;32452;51.382;-0.002;2022-09-09T00:16:45;16.00;99.90
46720;DHT22;32452;51.382;-0.002;2022-09-09T00:20:00;16.00;99.90
46720;DHT22;32452;51.382;-0.002;2022-09-09T00:23:05;16.00;99.90
46720;DHT22;32452;51.382;-0.002;2022-09-09T00:28:50;16.00;99.90
46720;DHT22;32452;51.382;-0.002;2022-09-09T00:31:38;16.00;99.90
46720;DHT22;32452;51.382;-0.002;2022-09-09T00:34:24;16.00;99.90
46720;DHT22;32452;51.382;-0.002;2022-09-09T00:37:19;16.00;99.90
46720;DHT22;32452;51.382;-0.002;2022-09-09T00:40:34;16.00;99.90
46720;DHT22;32452;51.382;-0.002;2022-09-09T00:43:30;16.00;99.90
46720;DHT22;32452;51.382;-0.002;2022-09-09T00:49:39;16.00;99.90
46720;DHT22;32452;51.382;-0.002;2022-09-09T00:55:56;15.90;99.90
46720;DHT22;32452;51.382;-0.002;2022-09-09T01:01:55;15.90;99.90
46720;DHT22;32452;51.382;-0.002;2022-09-09T01:04:42;15.90;99.90
46720;DHT22;32452;51.382;-0.002;2022-09-09T01:07:29;15.90;99.90
46720;DHT22;32452;51.382;-0.002;2022-09-09T01:10:48;15.90;99.90
46720;DHT22;32452;51.382;-0.002;2022-09-09T01:13:36;15.90;99.90
46720;DHT22;32452;51.382;-0.002;2022-09-09T01:16:23;15.90;99.90
46720;DHT22;32452;51.382;-0.002;2022-09-09T01:19:15;15.90;99.90
46720;DHT22;32452;51.382;-0.002;2022-09-09T01:22:36;16.00;99.90
46720;DHT22;32452;51.382;-0.002;2022-09-09T01:26:04;16.00;99.90
46720;DHT22;32452;51.382;-0.002;2022-09-09T01:28:55;16.00;99.90
46720;DHT22;32452;51.382;-0.002;2022-09-09T01:31:55;15.90;99.90
46720;DHT22;32452;51.382;-0.002;2022-09-09T01:34:40;16.00;99.90
46720;DHT22;32452;51.382;-0.002;2022-09-09T01:37:26;16.00;99.90
46720;DHT22;32452;51.382;-0.002;2022-09-09T01:40:12;16.00;99.90
46720;DHT22;32452;51.382;-0.002;2022-09-09T01:42:57;16.00;99.90
46720;DHT22;32452;51.382;-0.002;2022-09-09T01:45:44;16.00;99.90
46720;DHT22;32452;51.382;-0.002;2022-09-09T01:48:31;16.00;99.90
46720;DHT22;32452;51.382;-0.002;2022-09-09T01:51:17;16.00;99.90
46720;DHT22;32452;51.382;-0.002;2022-09-09T01:54:03;16.10;99.90
46720;DHT22;32452;51.382;-0.002;2022-09-09T02:03:09;16.10;99.90
46720;DHT22;32452;51.382;-0.002;2022-09-09T02:09:11;16.10;99.90
46720;DHT22;32452;51.382;-0.002;2022-09-09T02:12:05;16.00;99.90
46720;DHT22;32452;51.382;-0.002;2022-09-09T02:14:59;16.10;99.90
46720;DHT22;32452;51.382;-0.002;2022-09-09T02:17:46;16.10;99.90
46720;DHT22;32452;51.382;-0.002;2022-09-09T02:20:36;16.10;99.90
46720;DHT22;32452;51.382;-0.002;2022-09-09T02:23:22;16.10;99.90
46720;DHT22;32452;51.382;-0.002;2022-09-09T02:26:13;16.10;99.90
46720;DHT22;32452;51.382;-0.002;2022-09-09T02:29:08;16.10;99.90
46720;DHT22;32452;51.382;-0.002;2022-09-09T02:31:58;16.10;99.90
46720;DHT22;32452;51.382;-0.002;2022-09-09T02:34:51;16.10;99.90
46720;DHT22;32452;51.382;-0.002;2022-09-09T02:37:40;16.00;99.90
46720;DHT22;32452;51.382;-0.002;2022-09-09T02:40:26;16.10;99.90
46720;DHT22;32452;51.382;-0.002;2022-09-09T02:43:14;16.10;99.90
46720;DHT22;32452;51.382;-0.002;2022-09-09T02:49:48;16.10;99.90
46720;DHT22;32452;51.382;-0.002;2022-09-09T02:52:14;16.10;99.90
46720;DHT22;32452;51.382;-0.002;2022-09-09T02:55:09;16.10;99.90
46720;DHT22;32452;51.382;-0.002;2022-09-09T02:57:58;16.10;99.90
46720;DHT22;32452;51.382;-0.002;2022-09-09T03:00:47;16.10;99.90
46720;DHT22;32452;51.382;-0.002;2022-09-09T03:03:33;16.00;99.90
46720;DHT22;32452;51.382;-0.002;2022-09-09T03:06:18;16.00;99.90
46720;DHT22;32452;51.382;-0.002;2022-09-09T03:09:04;16.00;99.90
46720;DHT22;32452;51.382;-0.002;2022-09-09T03:11:50;16.10;99.90
46720;DHT22;32452;51.382;-0.002;2022-09-09T03:14:35;16.00;99.90
46720;DHT22;32452;51.382;-0.002;2022-09-09T03:17:21;16.00;99.90
46720;DHT22;32452;51.382;-0.002;2022-09-09T03:20:07;16.00;99.90
46720;DHT22;32452;51.382;-0.002;2022-09-09T03:22:54;16.00;99.90
46720;DHT22;32452;51.382;-0.002;2022-09-09T03:25:46;16.00;99.90
46720;DHT22;32452;51.382;-0.002;2022-09-09T03:28:33;16.00;99.90
46720;DHT22;32452;51.382;-0.002;2022-09-09T03:31:18;16.00;99.90
46720;DHT22;32452;51.382;-0.002;2022-09-09T03:34:05;16.00;99.90
46720;DHT22;32452;51.382;-0.002;2022-09-09T03:36:50;16.00;99.90
46720;DHT22;32452;51.382;-0.002;2022-09-09T03:39:35;16.00;99.90
46720;DHT22;32452;51.382;-0.002;2022-09-09T03:42:21;16.00;99.90
46720;DHT22;32452;51.382;-0.002;2022-09-09T03:45:08;16.00;99.90
46720;DHT22;32452;51.382;-0.002;2022-09-09T03:47:55;16.00;99.90
46720;DHT22;32452;51.382;-0.002;2022-09-09T03:50:46;15.90;99.90
46720;DHT22;32452;51.382;-0.002;2022-09-09T03:53:32;16.00;99.90
46720;DHT22;32452;51.382;-0.002;2022-09-09T03:56:18;16.00;99.90
46720;DHT22;32452;51.382;-0.002;2022-09-09T03:59:03;16.00;99.90
46720;DHT22;32452;51.382;-0.002;2022-09-09T04:01:49;16.00;99.90
46720;DHT22;32452;51.382;-0.002;2022-09-09T04:04:34;16.00;99.90
46720;DHT22;32452;51.382;-0.002;2022-09-09T04:07:20;16.00;99.90
46720;DHT22;32452;51.382;-0.002;2022-09-09T04:10:07;16.00;99.90
46720;DHT22;32452;51.382;-0.002;2022-09-09T04:12:53;16.00;99.90
46720;DHT22;32452;51.382;-0.002;2022-09-09T04:15:39;16.00;99.90
46720;DHT22;32452;51.382;-0.002;2022-09-09T04:18:25;16.00;99.90
46720;DHT22;32452;51.382;-0.002;2022-09-09T04:21:10;16.00;99.90
46720;DHT22;32452;51.382;-0.002;2022-09-09T04:23:57;16.00;99.90
46720;DHT22;32452;51.382;-0.002;2022-09-09T04:26:43;16.00;99.90
46720;DHT22;32452;51.382;-0.002;2022-09-09T04:29:28;16.00;99.90
46720;DHT22;32452;51.382;-0.002;2022-09-09T04:32:14;16.00;99.90
46720;DHT22;32452;51.382;-0.002;2022-09-09T04:35:00;16.00;99.90
46720;DHT22;32452;51.382;-0.002;2022-09-09T04:37:45;16.00;99.90
46720;DHT22;32452;51.382;-0.002;2022-09-09T04:40:31;16.00;99.90
46720;DHT22;32452;51.382;-0.002;2022-09-09T04:43:18;16.00;99.90
46720;DHT22;32452;51.382;-0.002;2022-09-09T04:46:05;16.00;99.90
46720;DHT22;32452;51.382;-0.002;2022-09-09T04:48:51;16.00;99.90
46720;DHT22;32452;51.382;-0.002;2022-09-09T04:51:38;16.00;99.90
46720;DHT22;32452;51.382;-0.002;2022-09-09T04:54:24;16.00;99.90
46720;DHT22;32452;51.382;-0.002;2022-09-09T04:57:10;16.00;99.90
46720;DHT22;32452;51.382;-0.002;2022-09-09T05:00:03;15.90;99.90
46720;DHT22;32452;51.382;-0.002;2022-09-09T05:02:49;16.00;99.90
46720;DHT22;32452;51.382;-0.002;2022-09-09T05:05:35;15.90;99.90
46720;DHT22;32452;51.382;-0.002;2022-09-09T05:08:20;16.00;99.90
46720;DHT22;32452;51.382;-0.002;2022-09-09T05:11:19;16.00;99.90
46720;DHT22;32452;51.382;-0.002;2022-09-09T05:14:04;16.00;99.90
46720;DHT22;32452;51.382;-0.002;2022-09-09T05:16:50;16.00;99.90
46720;DHT22;32452;51.382;-0.002;2022-09-09T05:19:36;16.00;99.90
46720;DHT22;32452;51.382;-0.002;2022-09-09T05:22:22;16.00;99.90
46720;DHT22;32452;51.382;-0.002;2022-09-09T05:25:08;15.90;99.90
46720;DHT22;32452;51.382;-0.002;2022-09-09T05:27:53;15.90;99.90
46720;DHT22;32452;51.382;-0.002;2022-09-09T05:30:39;16.00;99.90
46720;DHT22;32452;51.382;-0.002;2022-09-09T05:33:25;15.90;99.90
46720;DHT22;32452;51.382;-0.002;2022-09-09T05:36:13;15.90;99.90
46720;DHT22;32452;51.382;-0.002;2022-09-09T05:39:00;15.90;99.90
46720;DHT22;32452;51.382;-0.002;2022-09-09T05:41:46;15.90;99.90
46720;DHT22;32452;51.382;-0.002;2022-09-09T05:44:31;15.90;99.90
46720;DHT22;32452;51.382;-0.002;2022-09-09T05:47:17;15.90;99.90
46720;DHT22;32452;51.382;-0.002;2022-09-09T05:50:04;15.90;99.90
46720;DHT22;32452;51.382;-0.002;2022-09-09T05:52:49;15.90;99.90
46720;DHT22;32452;51.382;-0.002;2022-09-09T05:55:35;15.90;99.90
46720;DHT22;32452;51.382;-0.002;2022-09-09T05:58:20;15.90;99.90
46720;DHT22;32452;51.382;-0.002;2022-09-09T06:01:20;15.90;99.90
46720;DHT22;32452;51.382;-0.002;2022-09-09T06:04:06;15.90;99.90
46720;DHT22;32452;51.382;-0.002;2022-09-09T06:06:52;15.90;99.90
46720;DHT22;32452;51.382;-0.002;2022-09-09T06:09:38;15.90;99.90
46720;DHT22;32452;51.382;-0.002;2022-09-09T06:12:23;15.90;99.90
46720;DHT22;32452;51.382;-0.002;2022-09-09T06:15:10;15.90;99.90
46720;DHT22;32452;51.382;-0.002;2022-09-09T06:17:55;15.90;99.90
46720;DHT22;32452;51.382;-0.002;2022-09-09T06:20:41;15.90;99.90
46720;DHT22;32452;51.382;-0.002;2022-09-09T06:23:27;16.00;99.90
46720;DHT22;32452;51.382;-0.002;2022-09-09T06:26:19;16.00;99.90
46720;DHT22;32452;51.382;-0.002;2022-09-09T06:29:06;16.00;99.90
46720;DHT22;32452;51.382;-0.002;2022-09-09T06:31:51;16.00;99.90
46720;DHT22;32452;51.382;-0.002;2022-09-09T06:34:37;16.10;99.90
46720;DHT22;32452;51.382;-0.002;2022-09-09T06:37:22;16.10;99.90
46720;DHT22;32452;51.382;-0.002;2022-09-09T06:40:09;16.10;99.90
46720;DHT22;32452;51.382;-0.002;2022-09-09T06:42:59;16.10;99.90
46720;DHT22;32452;51.382;-0.002;2022-09-09T06:45:59;16.20;99.90
46720;DHT22;32452;51.382;-0.002;2022-09-09T06:48:46;16.20;99.90
46720;DHT22;32452;51.382;-0.002;2022-09-09T06:51:34;16.30;99.90
46720;DHT22;32452;51.382;-0.002;2022-09-09T06:54:20;16.20;99.90
46720;DHT22;32452;51.382;-0.002;2022-09-09T06:57:07;16.20;99.90
46720;DHT22;32452;51.382;-0.002;2022-09-09T07:00:13;16.40;99.90
46720;DHT22;32452;51.382;-0.002;2022-09-09T07:02:59;16.40;99.90
46720;DHT22;32452;51.382;-0.002;2022-09-09T07:05:54;16.50;99.90
46720;DHT22;32452;51.382;-0.002;2022-09-09T07:08:41;16.80;99.90
46720;DHT22;32452;51.382;-0.002;2022-09-09T07:11:29;17.00;99.90
46720;DHT22;32452;51.382;-0.002;2022-09-09T07:14:15;17.40;99.90
46720;DHT22;32452;51.382;-0.002;2022-09-09T07:17:02;17.70;99.90
46720;DHT22;32452;51.382;-0.002;2022-09-09T07:19:47;17.60;99.90
46720;DHT22;32452;51.382;-0.002;2022-09-09T07:22:33;17.50;99.90
46720;DHT22;32452;51.382;-0.002;2022-09-09T07:25:19;17.50;99.90
46720;DHT22;32452;51.382;-0.002;2022-09-09T07:28:06;17.40;99.90
46720;DHT22;32452;51.382;-0.002;2022-09-09T07:30:58;17.40;99.90
46720;DHT22;32452;51.382;-0.002;2022-09-09T07:33:45;17.40;99.90
46720;DHT22;32452;51.382;-0.002;2022-09-09T07:36:38;17.40;99.90
46720;DHT22;32452;51.382;-0.002;2022-09-09T07:39:24;17.40;99.90
46720;DHT22;32452;51.382;-0.002;2022-09-09T07:42:09;17.40;99.90
46720;DHT22;32452;51.382;-0.002;2022-09-09T07:44:56;17.30;99.90
46720;DHT22;32452;51.382;-0.002;2022-09-09T07:47:41;17.20;99.90
46720;DHT22;32452;51.382;-0.002;2022-09-09T07:50:30;17.10;99.90
46720;DHT22;32452;51.382;-0.002;2022-09-09T07:53:15;17.00;99.90
46720;DHT22;32452;51.382;-0.002;2022-09-09T07:56:06;17.00;99.90
46720;DHT22;32452;51.382;-0.002;2022-09-09T07:58:54;17.00;99.90
46720;DHT22;32452;51.382;-0.002;2022-09-09T08:01:45;16.90;99.90
46720;DHT22;32452;51.382;-0.002;2022-09-09T08:04:31;16.90;99.90
46720;DHT22;32452;51.382;-0.002;2022-09-09T08:07:17;16.90;99.90
46720;DHT22;32452;51.382;-0.002;2022-09-09T08:10:03;16.90;99.90
46720;DHT22;32452;51.382;-0.002;2022-09-09T08:12:49;16.90;99.90
46720;DHT22;32452;51.382;-0.002;2022-09-09T08:15:54;16.80;99.90
46720;DHT22;32452;51.382;-0.002;2022-09-09T08:18:41;17.00;99.90
46720;DHT22;32452;51.382;-0.002;2022-09-09T08:21:29;17.40;99.90
46720;DHT22;32452;51.382;-0.002;2022-09-09T08:24:14;18.30;99.90
46720;DHT22;32452;51.382;-0.002;2022-09-09T08:27:00;18.90;99.90
46720;DHT22;32452;51.382;-0.002;2022-09-09T08:29:47;19.10;99.90
46720;DHT22;32452;51.382;-0.002;2022-09-09T08:32:33;19.20;99.90
46720;DHT22;32452;51.382;-0.002;2022-09-09T08:35:20;19.00;99.50
46720;DHT22;32452;51.382;-0.002;2022-09-09T08:38:05;18.90;99.30
46720;DHT22;32452;51.382;-0.002;2022-09-09T08:41:03;18.80;99.40
46720;DHT22;32452;51.382;-0.002;2022-09-09T08:44:14;18.70;99.30
46720;DHT22;32452;51.382;-0.002;2022-09-09T08:55:56;18.70;99.10
46720;DHT22;32452;51.382;-0.002;2022-09-09T08:58:49;18.70;98.80
46720;DHT22;32452;51.382;-0.002;2022-09-09T09:01:48;18.60;98.70
46720;DHT22;32452;51.382;-0.002;2022-09-09T09:04:59;18.50;98.70
46720;DHT22;32452;51.382;-0.002;2022-09-09T09:10:51;18.10;98.40
46720;DHT22;32452;51.382;-0.002;2022-09-09T09:19:22;17.70;99.10
46720;DHT22;32452;51.382;-0.002;2022-09-09T09:22:35;17.70;99.20
46720;DHT22;32452;51.382;-0.002;2022-09-09T09:25:31;17.80;99.20
46720;DHT22;32452;51.382;-0.002;2022-09-09T09:28:29;17.80;99.20
46720;DHT22;32452;51.382;-0.002;2022-09-09T09:31:18;17.80;99.10
46720;DHT22;32452;51.382;-0.002;2022-09-09T09:34:05;17.70;99.10
46720;DHT22;32452;51.382;-0.002;2022-09-09T09:36:56;17.60;99.10
46720;DHT22;32452;51.382;-0.002;2022-09-09T09:39:42;17.60;99.10
46720;DHT22;32452;51.382;-0.002;2022-09-09T09:43:01;17.50;99.20
46720;DHT22;32452;51.382;-0.002;2022-09-09T09:45:49;17.50;99.30
46720;DHT22;32452;51.382;-0.002;2022-09-09T09:49:00;17.50;99.60
46720;DHT22;32452;51.382;-0.002;2022-09-09T09:51:46;17.50;99.90
46720;DHT22;32452;51.382;-0.002;2022-09-09T09:54:42;17.60;99.70
46720;DHT22;32452;51.382;-0.002;2022-09-09T09:57:29;17.70;99.50
46720;DHT22;32452;51.382;-0.002;2022-09-09T10:00:18;17.70;99.40
46720;DHT22;32452;51.382;-0.002;2022-09-09T10:03:29;17.80;99.40
46720;DHT22;32452;51.382;-0.002;2022-09-09T10:06:14;17.80;99.50
46720;DHT22;32452;51.382;-0.002;2022-09-09T10:09:02;17.70;99.40
46720;DHT22;32452;51.382;-0.002;2022-09-09T10:11:52;17.70;99.30
46720;DHT22;32452;51.382;-0.002;2022-09-09T10:14:44;17.70;99.30
46720;DHT22;32452;51.382;-0.002;2022-09-09T10:18:01;17.70;99.40
46720;DHT22;32452;51.382;-0.002;2022-09-09T10:24:16;17.90;99.90
46720;DHT22;32452;51.382;-0.002;2022-09-09T10:31:09;18.20;99.20
46720;DHT22;32452;51.382;-0.002;2022-09-09T10:40:31;18.40;98.70
46720;DHT22;32452;51.382;-0.002;2022-09-09T10:55:45;19.10;97.10
46720;DHT22;32452;51.382;-0.002;2022-09-09T10:58:50;19.20;97.00
46720;DHT22;32452;51.382;-0.002;2022-09-09T11:07:57;19.30;96.60
46720;DHT22;32452;51.382;-0.002;2022-09-09T11:10:45;19.40;96.40
46720;DHT22;32452;51.382;-0.002;2022-09-09T11:19:35;19.40;96.00
46720;DHT22;32452;51.382;-0.002;2022-09-09T11:25:21;19.50;95.80
46720;DHT22;32452;51.382;-0.002;2022-09-09T11:34:54;19.30;95.50
46720;DHT22;32452;51.382;-0.002;2022-09-09T11:40:46;19.20;95.40
46720;DHT22;32452;51.382;-0.002;2022-09-09T11:46:33;19.20;95.30
46720;DHT22;32452;51.382;-0.002;2022-09-09T11:49:42;19.50;95.90
46720;DHT22;32452;51.382;-0.002;2022-09-09T11:52:39;19.90;95.20
46720;DHT22;32452;51.382;-0.002;2022-09-09T11:55:32;20.00;94.90
46720;DHT22;32452;51.382;-0.002;2022-09-09T11:58:22;20.00;94.50
46720;DHT22;32452;51.382;-0.002;2022-09-09T12:04:26;20.30;93.90
46720;DHT22;32452;51.382;-0.002;2022-09-09T12:07:33;20.30;93.50
46720;DHT22;32452;51.382;-0.002;2022-09-09T12:10:29;20.30;93.20
46720;DHT22;32452;51.382;-0.002;2022-09-09T12:13:24;20.30;92.80
46720;DHT22;32452;51.382;-0.002;2022-09-09T12:16:34;20.20;92.50
46720;DHT22;32452;51.382;-0.002;2022-09-09T12:19:22;20.00;92.80
46720;DHT22;32452;51.382;-0.002;2022-09-09T12:22:22;19.90;92.80
46720;DHT22;32452;51.382;-0.002;2022-09-09T12:28:36;20.00;92.60
46720;DHT22;32452;51.382;-0.002;2022-09-09T12:34:50;20.40;92.20
46720;DHT22;32452;51.382;-0.002;2022-09-09T12:37:56;20.80;91.90
46720;DHT22;32452;51.382;-0.002;2022-09-09T12:40:54;21.10;91.20
46720;DHT22;32452;51.382;-0.002;2022-09-09T12:43:39;21.40;90.70
46720;DHT22;32452;51.382;-0.002;2022-09-09T12:46:34;21.60;90.60
46720;DHT22;32452;51.382;-0.002;2022-09-09T12:49:37;22.10;89.80
46720;DHT22;32452;51.382;-0.002;2022-09-09T12:52:30;22.40;87.20
46720;DHT22;32452;51.382;-0.002;2022-09-09T12:55:20;22.40;83.90
46720;DHT22;32452;51.382;-0.002;2022-09-09T12:58:07;22.30;81.90
46720;DHT22;32452;51.382;-0.002;2022-09-09T13:00:55;22.20;81.40
46720;DHT22;32452;51.382;-0.002;2022-09-09T13:03:43;22.10;80.90
46720;DHT22;32452;51.382;-0.002;2022-09-09T13:06:33;22.00;81.60
46720;DHT22;32452;51.382;-0.002;2022-09-09T13:09:19;21.90;81.10
46720;DHT22;32452;51.382;-0.002;2022-09-09T13:12:09;21.80;80.10
46720;DHT22;32452;51.382;-0.002;2022-09-09T13:15:00;21.70;79.70
46720;DHT22;32452;51.382;-0.002;2022-09-09T13:17:52;21.70;80.30
46720;DHT22;32452;51.382;-0.002;2022-09-09T13:20:38;22.00;79.90
46720;DHT22;32452;51.382;-0.002;2022-09-09T13:23:28;22.20;79.20
46720;DHT22;32452;51.382;-0.002;2022-09-09T13:26:22;22.40;77.80
46720;DHT22;32452;51.382;-0.002;2022-09-09T13:29:18;22.60;77.90
46720;DHT22;32452;51.382;-0.002;2022-09-09T13:32:06;22.60;77.40
46720;DHT22;32452;51.382;-0.002;2022-09-09T13:34:58;22.70;77.00
46720;DHT22;32452;51.382;-0.002;2022-09-09T13:37:43;22.70;75.70
46720;DHT22;32452;51.382;-0.002;2022-09-09T13:40:30;22.70;74.80
46720;DHT22;32452;51.382;-0.002;2022-09-09T13:43:22;22.50;74.10
46720;DHT22;32452;51.382;-0.002;2022-09-09T13:52:13;22.30;75.20
46720;DHT22;32452;51.382;-0.002;2022-09-09T13:55:02;22.30;74.80
46720;DHT22;32452;51.382;-0.002;2022-09-09T13:57:56;22.30;75.10
46720;DHT22;32452;51.382;-0.002;2022-09-09T14:00:42;22.40;74.50
46720;DHT22;32452;51.382;-0.002;2022-09-09T14:03:29;22.30;74.10
46720;DHT22;32452;51.382;-0.002;2022-09-09T14:06:15;22.30;74.40
46720;DHT22;32452;51.382;-0.002;2022-09-09T14:09:00;22.40;74.40
46720;DHT22;32452;51.382;-0.002;2022-09-09T14:11:46;22.50;73.90
46720;DHT22;32452;51.382;-0.002;2022-09-09T14:14:31;22.50;73.90
46720;DHT22;32452;51.382;-0.002;2022-09-09T14:17:17;22.50;73.70
46720;DHT22;32452;51.382;-0.002;2022-09-09T14:20:07;22.40;73.20
46720;DHT22;32452;51.382;-0.002;2022-09-09T14:22:53;22.40;73.00
46720;DHT22;32452;51.382;-0.002;2022-09-09T14:25:42;22.30;72.40
46720;DHT22;32452;51.382;-0.002;2022-09-09T14:28:28;22.30;71.60
46720;DHT22;32452;51.382;-0.002;2022-09-09T14:31:34;22.20;71.60
46720;DHT22;32452;51.382;-0.002;2022-09-09T14:34:19;22.10;71.90
46720;DHT22;32452;51.382;-0.002;2022-09-09T14:37:05;22.00;72.40
46720;DHT22;32452;51.382;-0.002;2022-09-09T14:39:51;21.90;72.20
46720;DHT22;32452;51.382;-0.002;2022-09-09T14:42:37;21.80;72.40
46720;DHT22;32452;51.382;-0.002;2022-09-09T14:45:25;21.70;72.40
46720;DHT22;32452;51.382;-0.002;2022-09-09T14:48:11;21.70;73.10
46720;DHT22;32452;51.382;-0.002;2022-09-09T14:50:56;21.60;73.70
46720;DHT22;32452;51.382;-0.002;2022-09-09T14:53:43;21.40;74.30
46720;DHT22;32452;51.382;-0.002;2022-09-09T14:56:31;21.30;75.00
46720;DHT22;32452;51.382;-0.002;2022-09-09T14:59:17;21.10;75.60
46720;DHT22;32452;51.382;-0.002;2022-09-09T15:02:02;21.00;76.20
46720;DHT22;32452;51.382;-0.002;2022-09-09T15:04:49;21.00;77.10
46720;DHT22;32452;51.382;-0.002;2022-09-09T15:07:38;20.90;78.10
46720;DHT22;32452;51.382;-0.002;2022-09-09T15:10:23;20.90;78.90
46720;DHT22;32452;51.382;-0.002;2022-09-09T15:13:09;20.90;79.70
46720;DHT22;32452;51.382;-0.002;2022-09-09T15:15:54;20.90;80.20
46720;DHT22;32452;51.382;-0.002;2022-09-09T15:18:41;21.00;80.00
46720;DHT22;32452;51.382;-0.002;2022-09-09T15:21:33;20.90;80.00
46720;DHT22;32452;51.382;-0.002;2022-09-09T15:24:18;21.00;80.00
46720;DHT22;32452;51.382;-0.002;2022-09-09T15:27:03;21.10;79.90
46720;DHT22;32452;51.382;-0.002;2022-09-09T15:29:49;21.20;79.60
46720;DHT22;32452;51.382;-0.002;2022-09-09T15:32:36;21.20;79.40
46720;DHT22;32452;51.382;-0.002;2022-09-09T15:35:21;21.20;79.00
46720;DHT22;32452;51.382;-0.002;2022-09-09T15:38:07;21.10;78.70
46720;DHT22;32452;51.382;-0.002;2022-09-09T15:40:53;21.00;78.80
46720;DHT22;32452;51.382;-0.002;2022-09-09T15:43:45;20.90;79.30
46720;DHT22;32452;51.382;-0.002;2022-09-09T15:46:36;20.80;79.90
46720;DHT22;32452;51.382;-0.002;2022-09-09T15:49:24;20.70;80.50
46720;DHT22;32452;51.382;-0.002;2022-09-09T15:52:11;20.70;81.10
46720;DHT22;32452;51.382;-0.002;2022-09-09T15:54:58;20.70;81.20
46720;DHT22;32452;51.382;-0.002;2022-09-09T15:57:43;20.80;81.10
46720;DHT22;32452;51.382;-0.002;2022-09-09T16:00:29;20.80;80.60
46720;DHT22;32452;51.382;-0.002;2022-09-09T16:03:14;20.80;81.00
46720;DHT22;32452;51.382;-0.002;2022-09-09T16:06:01;20.80;81.50
46720;DHT22;32452;51.382;-0.002;2022-09-09T16:08:46;20.70;82.30
46720;DHT22;32452;51.382;-0.002;2022-09-09T16:11:35;20.60;83.20
46720;DHT22;32452;51.382;-0.002;2022-09-09T16:14:20;20.60;84.40
46720;DHT22;32452;51.382;-0.002;2022-09-09T16:17:07;20.50;85.30
46720;DHT22;32452;51.382;-0.002;2022-09-09T16:19:53;20.40;86.60
46720;DHT22;32452;51.382;-0.002;2022-09-09T16:22:39;20.30;88.30
46720;DHT22;32452;51.382;-0.002;2022-09-09T16:25:25;20.20;89.60
46720;DHT22;32452;51.382;-0.002;2022-09-09T16:28:10;20.20;90.40
46720;DHT22;32452;51.382;-0.002;2022-09-09T16:30:57;20.10;90.80
46720;DHT22;32452;51.382;-0.002;2022-09-09T16:33:43;20.10;91.00
46720;DHT22;32452;51.382;-0.002;2022-09-09T16:36:31;20.00;91.50
46720;DHT22;32452;51.382;-0.002;2022-09-09T16:39:19;20.00;91.80
46720;DHT22;32452;51.382;-0.002;2022-09-09T16:42:04;20.00;92.20
46720;DHT22;32452;51.382;-0.002;2022-09-09T16:44:50;20.00;92.30
46720;DHT22;32452;51.382;-0.002;2022-09-09T16:47:35;19.90;92.40
46720;DHT22;32452;51.382;-0.002;2022-09-09T16:50:21;19.90;92.80
46720;DHT22;32452;51.382;-0.002;2022-09-09T16:53:07;19.90;93.10
46720;DHT22;32452;51.382;-0.002;2022-09-09T16:55:54;19.80;93.50
46720;DHT22;32452;51.382;-0.002;2022-09-09T16:58:40;19.80;94.00
46720;DHT22;32452;51.382;-0.002;2022-09-09T17:01:27;19.80;94.50
46720;DHT22;32452;51.382;-0.002;2022-09-09T17:04:16;19.80;94.80
46720;DHT22;32452;51.382;-0.002;2022-09-09T17:07:05;19.90;94.90
46720;DHT22;32452;51.382;-0.002;2022-09-09T17:09:51;19.90;94.90
46720;DHT22;32452;51.382;-0.002;2022-09-09T17:12:39;19.80;94.80
46720;DHT22;32452;51.382;-0.002;2022-09-09T17:15:29;19.80;95.10
46720;DHT22;32452;51.382;-0.002;2022-09-09T17:18:16;19.80;95.40
46720;DHT22;32452;51.382;-0.002;2022-09-09T17:21:06;19.70;95.60
46720;DHT22;32452;51.382;-0.002;2022-09-09T17:23:53;19.70;95.70
46720;DHT22;32452;51.382;-0.002;2022-09-09T17:26:39;19.60;95.80
46720;DHT22;32452;51.382;-0.002;2022-09-09T17:29:25;19.60;95.90
46720;DHT22;32452;51.382;-0.002;2022-09-09T17:32:11;19.60;96.00
46720;DHT22;32452;51.382;-0.002;2022-09-09T17:34:57;19.50;96.10
46720;DHT22;32452;51.382;-0.002;2022-09-09T17:41:39;19.40;96.20
46720;DHT22;32452;51.382;-0.002;2022-09-09T17:44:25;19.30;96.30
46720;DHT22;32452;51.382;-0.002;2022-09-09T17:47:12;19.30;96.50
46720;DHT22;32452;51.382;-0.002;2022-09-09T17:50:01;19.20;96.60
46720;DHT22;32452;51.382;-0.002;2022-09-09T17:52:47;19.10;96.70
46720;DHT22;32452;51.382;-0.002;2022-09-09T17:55:32;19.10;96.80
46720;DHT22;32452;51.382;-0.002;2022-09-09T17:58:18;18.90;97.00
46720;DHT22;32452;51.382;-0.002;2022-09-09T18:01:09;18.90;97.30
46720;DHT22;32452;51.382;-0.002;2022-09-09T18:03:59;18.80;97.50
46720;DHT22;32452;51.382;-0.002;2022-09-09T18:06:52;18.80;97.70
46720;DHT22;32452;51.382;-0.002;2022-09-09T18:09:38;18.80;97.90
46720;DHT22;32452;51.382;-0.002;2022-09-09T18:12:24;18.70;98.00
46720;DHT22;32452;51.382;-0.002;2022-09-09T18:15:11;18.70;98.10
46720;DHT22;32452;51.382;-0.002;2022-09-09T18:18:02;18.60;98.10
46720;DHT22;32452;51.382;-0.002;2022-09-09T18:21:02;18.60;98.10
46720;DHT22;32452;51.382;-0.002;2022-09-09T18:23:51;18.50;98.20
46720;DHT22;32452;51.382;-0.002;2022-09-09T18:26:39;18.40;98.30
46720;DHT22;32452;51.382;-0.002;2022-09-09T18:29:25;18.40;98.40
46720;DHT22;32452;51.382;-0.002;2022-09-09T18:32:10;18.30;98.50
46720;DHT22;32452;51.382;-0.002;2022-09-09T18:34:56;18.30;98.70
46720;DHT22;32452;51.382;-0.002;2022-09-09T18:37:46;18.20;98.80
46720;DHT22;32452;51.382;-0.002;2022-09-09T18:40:32;18.20;98.90
46720;DHT22;32452;51.382;-0.002;2022-09-09T18:43:17;18.10;98.90
46720;DHT22;32452;51.382;-0.002;2022-09-09T18:46:04;18.10;99.10
46720;DHT22;32452;51.382;-0.002;2022-09-09T18:48:51;18.00;99.30
46720;DHT22;32452;51.382;-0.002;2022-09-09T18:51:38;18.00;99.30
46720;DHT22;32452;51.382;-0.002;2022-09-09T18:54:28;18.00;99.40
46720;DHT22;32452;51.382;-0.002;2022-09-09T18:57:14;18.00;99.50
46720;DHT22;32452;51.382;-0.002;2022-09-09T18:59:59;18.00;99.50
46720;DHT22;32452;51.382;-0.002;2022-09-09T19:02:48;18.00;99.50
46720;DHT22;32452;51.382;-0.002;2022-09-09T19:05:36;18.00;99.50
46720;DHT22;32452;51.382;-0.002;2022-09-09T19:08:21;17.90;99.50
46720;DHT22;32452;51.382;-0.002;2022-09-09T19:11:12;17.90;99.50
46720;DHT22;32452;51.382;-0.002;2022-09-09T19:14:02;17.80;99.50
46720;DHT22;32452;51.382;-0.002;2022-09-09T19:16:48;17.80;99.60
46720;DHT22;32452;51.382;-0.002;2022-09-09T19:19:33;17.80;99.60
46720;DHT22;32452;51.382;-0.002;2022-09-09T19:22:19;17.70;99.60
46720;DHT22;32452;51.382;-0.002;2022-09-09T19:25:05;17.70;99.90
46720;DHT22;32452;51.382;-0.002;2022-09-09T19:27:51;17.60;99.80
46720;DHT22;32452;51.382;-0.002;2022-09-09T19:30:36;17.60;99.90